sensor_id;sensor_type;location;lat;lon;timestamp;pressure;altitude;pressure_sealevel;temperature;humidity
2685;BME280;1352;48.446;9.156;2022-10-16T00:01:17;95220.63;;;18.00;97.89
2685;BME280;1352;48.446;9.156;2022-10-16T00:03:46;95211.03;;;18.13;97.51
2685;BME280;1352;48.446;9.156;2022-10-16T00:06:15;95216.25;;;18.07;97.48
2685;BME280;1352;48.446;9.156;2022-10-16T00:08:42;95209.41;;;18.12;97.08
2685;BME280;1352;48.446;9.156;2022-10-16T00:11:11;95214.91;;;18.11;97.30
2685;BME280;1352;48.446;9.156;2022-10-16T00:13:40;95215.25;;;18.08;97.25
2685;BME280;1352;48.446;9.156;2022-10-16T00:16:09;95219.53;;;18.09;96.81
2685;BME280;1352;48.446;9.156;2022-10-16T00:18:38;95210.78;;;18.08;97.53
2685;BME280;1352;48.446;9.156;2022-10-16T00:21:07;95220.78;;;18.13;97.33
2685;BME280;1352;48.446;9.156;2022-10-16T00:23:36;95225.47;;;18.11;97.16
2685;BME280;1352;48.446;9.156;2022-10-16T00:26:05;95227.53;;;18.15;96.23
2685;BME280;1352;48.446;9.156;2022-10-16T00:28:33;95229.81;;;18.04;97.82
2685;BME280;1352;48.446;9.156;2022-10-16T00:31:03;95230.53;;;18.12;97.09
2685;BME280;1352;48.446;9.156;2022-10-16T00:33:30;95227.47;;;18.09;97.11
2685;BME280;1352;48.446;9.156;2022-10-16T00:35:59;95230.09;;;18.09;97.52
2685;BME280;1352;48.446;9.156;2022-10-16T00:38:26;95223.91;;;18.02;97.64
2685;BME280;1352;48.446;9.156;2022-10-16T00:40:53;95217.19;;;17.99;99.41
2685;BME280;1352;48.446;9.156;2022-10-16T00:43:35;95228.66;;;17.92;98.84
2685;BME280;1352;48.446;9.156;2022-10-16T00:46:05;95222.38;;;17.93;99.78
2685;BME280;1352;48.446;9.156;2022-10-16T00:48:35;95217.44;;;17.90;100.00
2685;BME280;1352;48.446;9.156;2022-10-16T00:51:04;95225.19;;;17.76;100.00
2685;BME280;1352;48.446;9.156;2022-10-16T00:53:33;95230.28;;;17.63;100.00
2685;BME280;1352;48.446;9.156;2022-10-16T00:56:00;95225.34;;;17.60;100.00
2685;BME280;1352;48.446;9.156;2022-10-16T00:58:28;95223.97;;;17.49;100.00
2685;BME280;1352;48.446;9.156;2022-10-16T01:00:54;95224.03;;;17.56;100.00
2685;BME280;1352;48.446;9.156;2022-10-16T01:03:25;95215.59;;;17.61;100.00
2685;BME280;1352;48.446;9.156;2022-10-16T01:06:03;95222.00;;;17.66;99.60
2685;BME280;1352;48.446;9.156;2022-10-16T01:08:41;95223.19;;;17.64;98.07
2685;BME280;1352;48.446;9.156;2022-10-16T01:11:19;95223.09;;;17.72;97.66
2685;BME280;1352;48.446;9.156;2022-10-16T01:13:52;95229.47;;;17.77;96.01
2685;BME280;1352;48.446;9.156;2022-10-16T01:16:27;95227.28;;;17.81;96.46
2685;BME280;1352;48.446;9.156;2022-10-16T01:19:02;95230.00;;;17.88;95.47
2685;BME280;1352;48.446;9.156;2022-10-16T01:21:36;95238.66;;;17.96;95.19
2685;BME280;1352;48.446;9.156;2022-10-16T01:24:12;95240.28;;;17.97;93.52
2685;BME280;1352;48.446;9.156;2022-10-16T01:27:02;95231.44;;;18.05;94.64
2685;BME280;1352;48.446;9.156;2022-10-16T01:29:34;95232.63;;;18.17;92.83
2685;BME280;1352;48.446;9.156;2022-10-16T01:32:09;95226.34;;;18.18;94.06
2685;BME280;1352;48.446;9.156;2022-10-16T01:34:41;95221.06;;;18.18;95.08
2685;BME280;1352;48.446;9.156;2022-10-16T01:37:12;95234.00;;;18.13;97.51
2685;BME280;1352;48.446;9.156;2022-10-16T01:39:45;95231.28;;;18.06;97.57
2685;BME280;1352;48.446;9.156;2022-10-16T01:42:19;95228.66;;;17.92;95.65
2685;BME280;1352;48.446;9.156;2022-10-16T01:44:48;95231.91;;;18.08;96.33
2685;BME280;1352;48.446;9.156;2022-10-16T01:47:17;95228.38;;;18.01;97.27
2685;BME280;1352;48.446;9.156;2022-10-16T01:49:46;95226.44;;;17.95;98.11
2685;BME280;1352;48.446;9.156;2022-10-16T01:52:17;95237.66;;;17.97;99.16
2685;BME280;1352;48.446;9.156;2022-10-16T01:54:47;95237.84;;;17.96;99.89
2685;BME280;1352;48.446;9.156;2022-10-16T01:57:18;95241.66;;;17.93;99.96
2685;BME280;1352;48.446;9.156;2022-10-16T01:59:50;95229.66;;;17.91;99.96
2685;BME280;1352;48.446;9.156;2022-10-16T02:02:20;95227.38;;;17.88;100.00
2685;BME280;1352;48.446;9.156;2022-10-16T02:04:53;95231.66;;;17.74;100.00
2685;BME280;1352;48.446;9.156;2022-10-16T02:07:22;95241.47;;;17.65;100.00
2685;BME280;1352;48.446;9.156;2022-10-16T02:09:49;95236.56;;;17.62;100.00
2685;BME280;1352;48.446;9.156;2022-10-16T02:12:24;95234.25;;;17.59;100.00
2685;BME280;1352;48.446;9.156;2022-10-16T02:14:53;95229.63;;;17.61;100.00
2685;BME280;1352;48.446;9.156;2022-10-16T02:17:20;95225.50;;;17.59;100.00
2685;BME280;1352;48.446;9.156;2022-10-16T02:19:49;95225.69;;;17.57;100.00
2685;BME280;1352;48.446;9.156;2022-10-16T02:22:25;95219.31;;;17.52;100.00
2685;BME280;1352;48.446;9.156;2022-10-16T02:24:54;95216.59;;;17.45;100.00
2685;BME280;1352;48.446;9.156;2022-10-16T02:27:27;95230.59;;;17.45;100.00
2685;BME280;1352;48.446;9.156;2022-10-16T02:30:00;95218.41;;;17.44;100.00
2685;BME280;1352;48.446;9.156;2022-10-16T02:32:34;95218.75;;;17.64;100.00
2685;BME280;1352;48.446;9.156;2022-10-16T02:35:03;95234.66;;;17.71;98.45
2685;BME280;1352;48.446;9.156;2022-10-16T02:37:32;95241.75;;;17.85;97.20
2685;BME280;1352;48.446;9.156;2022-10-16T02:39:59;95229.47;;;17.92;96.24
2685;BME280;1352;48.446;9.156;2022-10-16T02:42:33;95233.19;;;17.98;95.31
2685;BME280;1352;48.446;9.156;2022-10-16T02:45:00;95241.00;;;18.06;94.62
2685;BME280;1352;48.446;9.156;2022-10-16T02:47:27;95237.28;;;18.15;93.89
2685;BME280;1352;48.446;9.156;2022-10-16T02:49:54;95230.44;;;18.20;93.60
2685;BME280;1352;48.446;9.156;2022-10-16T02:52:21;95228.06;;;18.26;93.55
2685;BME280;1352;48.446;9.156;2022-10-16T02:54:48;95235.53;;;18.22;93.08
2685;BME280;1352;48.446;9.156;2022-10-16T02:57:15;95230.78;;;18.32;92.51
2685;BME280;1352;48.446;9.156;2022-10-16T02:59:43;95233.28;;;18.19;94.52
2685;BME280;1352;48.446;9.156;2022-10-16T03:02:11;95223.84;;;18.31;92.72
2685;BME280;1352;48.446;9.156;2022-10-16T03:04:38;95232.06;;;18.21;92.39
2685;BME280;1352;48.446;9.156;2022-10-16T03:07:05;95221.97;;;18.25;91.80
2685;BME280;1352;48.446;9.156;2022-10-16T03:09:33;95222.72;;;18.40;91.72
2685;BME280;1352;48.446;9.156;2022-10-16T03:12:00;95218.28;;;18.41;90.94
2685;BME280;1352;48.446;9.156;2022-10-16T03:14:27;95221.72;;;18.41;90.15
2685;BME280;1352;48.446;9.156;2022-10-16T03:16:55;95227.66;;;18.43;90.67
2685;BME280;1352;48.446;9.156;2022-10-16T03:19:22;95230.19;;;18.51;90.25
2685;BME280;1352;48.446;9.156;2022-10-16T03:21:49;95229.19;;;18.52;89.25
2685;BME280;1352;48.446;9.156;2022-10-16T03:24:16;95231.56;;;18.62;89.78
2685;BME280;1352;48.446;9.156;2022-10-16T03:26:43;95234.28;;;18.54;90.90
2685;BME280;1352;48.446;9.156;2022-10-16T03:29:11;95238.75;;;18.53;90.77
2685;BME280;1352;48.446;9.156;2022-10-16T03:31:38;95242.72;;;18.28;93.49
2685;BME280;1352;48.446;9.156;2022-10-16T03:34:06;95241.88;;;18.42;93.06
2685;BME280;1352;48.446;9.156;2022-10-16T03:36:33;95246.25;;;18.35;93.35
2685;BME280;1352;48.446;9.156;2022-10-16T03:39:00;95245.91;;;18.38;94.96
2685;BME280;1352;48.446;9.156;2022-10-16T03:41:27;95238.69;;;18.32;96.04
2685;BME280;1352;48.446;9.156;2022-10-16T03:43:54;95245.56;;;18.27;96.70
2685;BME280;1352;48.446;9.156;2022-10-16T03:46:22;95234.84;;;17.99;98.15
2685;BME280;1352;48.446;9.156;2022-10-16T03:48:49;95233.38;;;17.96;96.12
2685;BME280;1352;48.446;9.156;2022-10-16T03:51:17;95237.00;;;17.95;98.53
2685;BME280;1352;48.446;9.156;2022-10-16T03:53:44;95225.72;;;17.87;98.45
2685;BME280;1352;48.446;9.156;2022-10-16T03:56:11;95234.47;;;17.87;98.23
2685;BME280;1352;48.446;9.156;2022-10-16T03:58:38;95240.56;;;17.88;96.36
2685;BME280;1352;48.446;9.156;2022-10-16T04:01:05;95236.28;;;17.87;94.44
2685;BME280;1352;48.446;9.156;2022-10-16T04:03:32;95245.31;;;17.92;93.66
2685;BME280;1352;48.446;9.156;2022-10-16T04:05:59;95240.19;;;18.05;93.34
2685;BME280;1352;48.446;9.156;2022-10-16T04:08:28;95246.13;;;18.07;92.59
2685;BME280;1352;48.446;9.156;2022-10-16T04:10:55;95244.00;;;18.17;92.32
2685;BME280;1352;48.446;9.156;2022-10-16T04:13:22;95251.47;;;18.29;91.32
2685;BME280;1352;48.446;9.156;2022-10-16T04:15:49;95258.19;;;18.31;91.59
2685;BME280;1352;48.446;9.156;2022-10-16T04:18:16;95252.47;;;18.13;96.67
2685;BME280;1352;48.446;9.156;2022-10-16T04:20:43;95259.69;;;18.04;96.99
2685;BME280;1352;48.446;9.156;2022-10-16T04:23:10;95249.38;;;17.95;97.52
2685;BME280;1352;48.446;9.156;2022-10-16T04:25:38;95251.50;;;17.99;96.87
2685;BME280;1352;48.446;9.156;2022-10-16T04:28:05;95247.22;;;17.98;97.34
2685;BME280;1352;48.446;9.156;2022-10-16T04:30:32;95241.59;;;18.01;98.72
2685;BME280;1352;48.446;9.156;2022-10-16T04:33:00;95238.00;;;17.94;99.78
2685;BME280;1352;48.446;9.156;2022-10-16T04:35:27;95243.38;;;17.86;99.42
2685;BME280;1352;48.446;9.156;2022-10-16T04:37:54;95237.00;;;17.66;97.26
2685;BME280;1352;48.446;9.156;2022-10-16T04:40:23;95239.19;;;17.77;99.32
2685;BME280;1352;48.446;9.156;2022-10-16T04:42:52;95239.38;;;17.75;98.68
2685;BME280;1352;48.446;9.156;2022-10-16T04:45:19;95245.13;;;17.79;98.91
2685;BME280;1352;48.446;9.156;2022-10-16T04:47:46;95236.03;;;17.81;95.57
2685;BME280;1352;48.446;9.156;2022-10-16T04:50:13;95237.28;;;17.85;92.69
2685;BME280;1352;48.446;9.156;2022-10-16T04:52:40;95251.75;;;18.04;90.06
2685;BME280;1352;48.446;9.156;2022-10-16T04:55:07;95252.41;;;18.21;89.66
2685;BME280;1352;48.446;9.156;2022-10-16T04:57:35;95252.72;;;18.33;87.34
2685;BME280;1352;48.446;9.156;2022-10-16T05:00:04;95255.81;;;18.36;86.50
2685;BME280;1352;48.446;9.156;2022-10-16T05:02:32;95266.28;;;18.44;85.91
2685;BME280;1352;48.446;9.156;2022-10-16T05:04:58;95265.16;;;18.53;84.83
2685;BME280;1352;48.446;9.156;2022-10-16T05:07:25;95258.25;;;18.52;84.87
2685;BME280;1352;48.446;9.156;2022-10-16T05:09:52;95271.94;;;18.41;89.45
2685;BME280;1352;48.446;9.156;2022-10-16T05:12:19;95277.50;;;18.32;90.76
2685;BME280;1352;48.446;9.156;2022-10-16T05:14:46;95279.78;;;18.35;88.25
2685;BME280;1352;48.446;9.156;2022-10-16T05:17:15;95280.91;;;18.11;93.54
2685;BME280;1352;48.446;9.156;2022-10-16T05:19:42;95283.19;;;17.99;96.11
2685;BME280;1352;48.446;9.156;2022-10-16T05:22:09;95284.00;;;18.00;96.57
2685;BME280;1352;48.446;9.156;2022-10-16T05:24:36;95287.28;;;18.02;95.62
2685;BME280;1352;48.446;9.156;2022-10-16T05:27:03;95276.91;;;18.00;92.93
2685;BME280;1352;48.446;9.156;2022-10-16T05:29:30;95286.63;;;18.00;94.41
2685;BME280;1352;48.446;9.156;2022-10-16T05:31:57;95287.81;;;17.97;96.46
2685;BME280;1352;48.446;9.156;2022-10-16T05:34:26;95280.81;;;17.90;97.18
2685;BME280;1352;48.446;9.156;2022-10-16T05:36:53;95277.16;;;17.91;96.67
2685;BME280;1352;48.446;9.156;2022-10-16T05:39:20;95279.53;;;17.85;93.65
2685;BME280;1352;48.446;9.156;2022-10-16T05:41:49;95288.25;;;17.86;94.00
2685;BME280;1352;48.446;9.156;2022-10-16T05:44:16;95290.06;;;17.85;91.50
2685;BME280;1352;48.446;9.156;2022-10-16T05:46:43;95282.72;;;17.96;89.48
2685;BME280;1352;48.446;9.156;2022-10-16T05:49:10;95286.25;;;17.88;88.00
2685;BME280;1352;48.446;9.156;2022-10-16T05:51:38;95281.78;;;18.03;87.17
2685;BME280;1352;48.446;9.156;2022-10-16T05:54:06;95292.00;;;18.21;86.52
2685;BME280;1352;48.446;9.156;2022-10-16T05:56:33;95301.47;;;18.30;85.85
2685;BME280;1352;48.446;9.156;2022-10-16T05:59:00;95297.81;;;18.31;86.17
2685;BME280;1352;48.446;9.156;2022-10-16T06:01:29;95304.72;;;18.32;88.16
2685;BME280;1352;48.446;9.156;2022-10-16T06:03:56;95299.06;;;18.50;91.66
2685;BME280;1352;48.446;9.156;2022-10-16T06:06:25;95309.84;;;18.48;92.59
2685;BME280;1352;48.446;9.156;2022-10-16T06:08:55;95304.84;;;18.39;92.94
2685;BME280;1352;48.446;9.156;2022-10-16T06:11:24;95310.94;;;18.39;92.95
2685;BME280;1352;48.446;9.156;2022-10-16T06:13:53;95317.06;;;18.40;93.22
2685;BME280;1352;48.446;9.156;2022-10-16T06:16:22;95321.59;;;18.31;94.22
2685;BME280;1352;48.446;9.156;2022-10-16T06:18:51;95326.03;;;18.31;94.52
2685;BME280;1352;48.446;9.156;2022-10-16T06:21:20;95326.53;;;18.19;95.92
2685;BME280;1352;48.446;9.156;2022-10-16T06:23:48;95331.16;;;18.17;95.84
2685;BME280;1352;48.446;9.156;2022-10-16T06:26:18;95329.78;;;18.07;96.91
2685;BME280;1352;48.446;9.156;2022-10-16T06:28:46;95339.88;;;18.03;98.12
2685;BME280;1352;48.446;9.156;2022-10-16T06:31:13;95335.44;;;18.04;97.71
2685;BME280;1352;48.446;9.156;2022-10-16T06:33:41;95339.63;;;17.98;97.90
2685;BME280;1352;48.446;9.156;2022-10-16T06:36:10;95336.97;;;17.98;98.18
2685;BME280;1352;48.446;9.156;2022-10-16T06:38:37;95339.28;;;18.01;98.56
2685;BME280;1352;48.446;9.156;2022-10-16T06:41:06;95340.44;;;17.99;98.21
2685;BME280;1352;48.446;9.156;2022-10-16T06:43:35;95351.66;;;18.01;98.97
2685;BME280;1352;48.446;9.156;2022-10-16T06:46:03;95350.44;;;18.03;99.96
2685;BME280;1352;48.446;9.156;2022-10-16T06:48:30;95359.84;;;18.06;100.00
2685;BME280;1352;48.446;9.156;2022-10-16T06:50:58;95358.00;;;18.06;100.00
2685;BME280;1352;48.446;9.156;2022-10-16T06:53:27;95354.47;;;18.14;100.00
2685;BME280;1352;48.446;9.156;2022-10-16T06:55:54;95365.84;;;18.14;100.00
2685;BME280;1352;48.446;9.156;2022-10-16T06:58:22;95362.69;;;18.19;100.00
2685;BME280;1352;48.446;9.156;2022-10-16T07:00:55;95367.97;;;18.19;100.00
2685;BME280;1352;48.446;9.156;2022-10-16T07:03:23;95377.44;;;18.28;100.00
2685;BME280;1352;48.446;9.156;2022-10-16T07:05:50;95378.09;;;18.30;100.00
2685;BME280;1352;48.446;9.156;2022-10-16T07:08:17;95381.72;;;18.29;100.00
2685;BME280;1352;48.446;9.156;2022-10-16T07:10:44;95386.38;;;18.27;99.90
2685;BME280;1352;48.446;9.156;2022-10-16T07:13:11;95388.25;;;18.33;100.00
2685;BME280;1352;48.446;9.156;2022-10-16T07:15:39;95382.44;;;18.38;100.00
2685;BME280;1352;48.446;9.156;2022-10-16T07:18:07;95381.47;;;18.39;100.00
2685;BME280;1352;48.446;9.156;2022-10-16T07:20:34;95394.75;;;18.45;100.00
2685;BME280;1352;48.446;9.156;2022-10-16T07:23:02;95397.56;;;18.44;100.00
2685;BME280;1352;48.446;9.156;2022-10-16T07:25:29;95404.41;;;18.53;100.00
2685;BME280;1352;48.446;9.156;2022-10-16T07:27:56;95403.56;;;18.52;100.00
2685;BME280;1352;48.446;9.156;2022-10-16T07:30:24;95406.41;;;18.51;100.00
2685;BME280;1352;48.446;9.156;2022-10-16T07:32:51;95404.72;;;18.58;100.00
2685;BME280;1352;48.446;9.156;2022-10-16T07:35:19;95410.84;;;18.58;100.00
2685;BME280;1352;48.446;9.156;2022-10-16T07:37:46;95423.31;;;18.65;100.00
2685;BME280;1352;48.446;9.156;2022-10-16T07:40:14;95422.00;;;18.61;100.00
2685;BME280;1352;48.446;9.156;2022-10-16T07:42:41;95425.13;;;18.64;100.00
2685;BME280;1352;48.446;9.156;2022-10-16T07:45:08;95429.06;;;18.68;100.00
2685;BME280;1352;48.446;9.156;2022-10-16T07:47:35;95443.72;;;18.71;100.00
2685;BME280;1352;48.446;9.156;2022-10-16T07:50:03;95448.16;;;18.70;100.00
2685;BME280;1352;48.446;9.156;2022-10-16T07:52:31;95448.81;;;18.72;100.00
2685;BME280;1352;48.446;9.156;2022-10-16T07:54:58;95450.81;;;18.85;100.00
2685;BME280;1352;48.446;9.156;2022-10-16T07:57:26;95458.47;;;18.94;100.00
2685;BME280;1352;48.446;9.156;2022-10-16T07:59:53;95462.59;;;18.82;100.00
2685;BME280;1352;48.446;9.156;2022-10-16T08:02:20;95465.66;;;19.01;100.00
2685;BME280;1352;48.446;9.156;2022-10-16T08:04:47;95469.31;;;19.00;100.00
2685;BME280;1352;48.446;9.156;2022-10-16T08:07:15;95463.66;;;19.03;100.00
2685;BME280;1352;48.446;9.156;2022-10-16T08:09:44;95457.44;;;19.10;100.00
2685;BME280;1352;48.446;9.156;2022-10-16T08:12:11;95459.81;;;19.20;98.50
2685;BME280;1352;48.446;9.156;2022-10-16T08:14:38;95450.88;;;19.21;97.74
2685;BME280;1352;48.446;9.156;2022-10-16T08:17:05;95448.38;;;19.34;98.10
2685;BME280;1352;48.446;9.156;2022-10-16T08:19:32;95444.53;;;19.37;97.75
2685;BME280;1352;48.446;9.156;2022-10-16T08:22:00;95452.56;;;19.43;98.38
2685;BME280;1352;48.446;9.156;2022-10-16T08:24:27;95468.22;;;19.23;98.27
2685;BME280;1352;48.446;9.156;2022-10-16T08:26:57;95464.63;;;19.31;100.00
2685;BME280;1352;48.446;9.156;2022-10-16T08:29:24;95465.34;;;19.40;100.00
2685;BME280;1352;48.446;9.156;2022-10-16T08:31:51;95465.16;;;19.26;100.00
2685;BME280;1352;48.446;9.156;2022-10-16T08:34:18;95478.94;;;19.37;100.00
2685;BME280;1352;48.446;9.156;2022-10-16T08:36:45;95476.09;;;19.38;99.84
2685;BME280;1352;48.446;9.156;2022-10-16T08:39:13;95485.53;;;19.11;100.00
2685;BME280;1352;48.446;9.156;2022-10-16T08:41:59;95484.06;;;19.23;100.00
2685;BME280;1352;48.446;9.156;2022-10-16T08:44:49;95491.31;;;19.15;100.00
2685;BME280;1352;48.446;9.156;2022-10-16T08:47:22;95486.66;;;19.02;100.00
2685;BME280;1352;48.446;9.156;2022-10-16T08:49:56;95498.41;;;18.85;100.00
2685;BME280;1352;48.446;9.156;2022-10-16T08:52:25;95497.59;;;18.99;100.00
2685;BME280;1352;48.446;9.156;2022-10-16T08:54:55;95498.94;;;19.24;100.00
2685;BME280;1352;48.446;9.156;2022-10-16T08:57:25;95502.03;;;19.43;100.00
2685;BME280;1352;48.446;9.156;2022-10-16T08:59:53;95500.19;;;19.58;100.00
2685;BME280;1352;48.446;9.156;2022-10-16T09:02:30;95508.56;;;19.47;99.06
2685;BME280;1352;48.446;9.156;2022-10-16T09:05:02;95497.31;;;19.74;98.89
2685;BME280;1352;48.446;9.156;2022-10-16T09:07:43;95511.31;;;19.89;100.00
2685;BME280;1352;48.446;9.156;2022-10-16T09:10:24;95505.09;;;19.97;96.01
2685;BME280;1352;48.446;9.156;2022-10-16T09:12:58;95515.03;;;20.16;92.93
2685;BME280;1352;48.446;9.156;2022-10-16T09:15:33;95512.81;;;20.20;94.52
2685;BME280;1352;48.446;9.156;2022-10-16T09:18:06;95516.50;;;20.40;92.82
2685;BME280;1352;48.446;9.156;2022-10-16T09:20:44;95523.78;;;20.59;84.66
2685;BME280;1352;48.446;9.156;2022-10-16T09:23:17;95512.84;;;20.69;78.75
2685;BME280;1352;48.446;9.156;2022-10-16T09:25:47;95516.28;;;20.91;77.59
2685;BME280;1352;48.446;9.156;2022-10-16T09:28:17;95521.66;;;21.04;74.46
2685;BME280;1352;48.446;9.156;2022-10-16T09:30:45;95518.72;;;21.20;73.75
2685;BME280;1352;48.446;9.156;2022-10-16T09:33:15;95525.06;;;21.26;77.51
2685;BME280;1352;48.446;9.156;2022-10-16T09:35:44;95519.41;;;21.35;72.78
2685;BME280;1352;48.446;9.156;2022-10-16T09:38:25;95532.13;;;21.46;75.79
2685;BME280;1352;48.446;9.156;2022-10-16T09:40:54;95533.56;;;21.49;74.66
2685;BME280;1352;48.446;9.156;2022-10-16T09:43:25;95531.28;;;21.46;69.52
2685;BME280;1352;48.446;9.156;2022-10-16T09:45:58;95531.09;;;21.41;68.48
2685;BME280;1352;48.446;9.156;2022-10-16T09:48:35;95538.22;;;21.40;65.35
2685;BME280;1352;48.446;9.156;2022-10-16T09:51:05;95532.50;;;21.43;66.04
2685;BME280;1352;48.446;9.156;2022-10-16T09:53:40;95537.78;;;21.37;66.22
2685;BME280;1352;48.446;9.156;2022-10-16T09:56:10;95538.06;;;21.48;65.59
2685;BME280;1352;48.446;9.156;2022-10-16T09:58:43;95543.53;;;21.40;69.27
2685;BME280;1352;48.446;9.156;2022-10-16T10:01:16;95533.31;;;21.44;68.53
2685;BME280;1352;48.446;9.156;2022-10-16T10:03:44;95535.22;;;21.50;67.58
2685;BME280;1352;48.446;9.156;2022-10-16T10:06:18;95550.25;;;21.36;66.06
2685;BME280;1352;48.446;9.156;2022-10-16T10:08:59;95539.06;;;21.47;66.09
2685;BME280;1352;48.446;9.156;2022-10-16T10:11:53;95536.59;;;21.46;65.82
2685;BME280;1352;48.446;9.156;2022-10-16T10:14:31;95532.94;;;21.47;65.98
2685;BME280;1352;48.446;9.156;2022-10-16T10:17:13;95538.88;;;21.49;65.49
2685;BME280;1352;48.446;9.156;2022-10-16T10:19:44;95534.59;;;21.54;65.47
2685;BME280;1352;48.446;9.156;2022-10-16T10:22:31;95535.66;;;21.60;66.86
2685;BME280;1352;48.446;9.156;2022-10-16T10:25:22;95537.06;;;21.63;64.88
2685;BME280;1352;48.446;9.156;2022-10-16T10:28:04;95533.81;;;21.61;64.34
2685;BME280;1352;48.446;9.156;2022-10-16T10:30:40;95537.31;;;21.68;65.35
2685;BME280;1352;48.446;9.156;2022-10-16T10:33:18;95541.84;;;21.80;66.62
2685;BME280;1352;48.446;9.156;2022-10-16T10:35:54;95537.38;;;21.87;66.57
2685;BME280;1352;48.446;9.156;2022-10-16T10:38:29;95541.47;;;21.90;66.29
2685;BME280;1352;48.446;9.156;2022-10-16T10:41:10;95545.56;;;21.86;65.95
2685;BME280;1352;48.446;9.156;2022-10-16T10:43:55;95540.72;;;22.09;66.10
2685;BME280;1352;48.446;9.156;2022-10-16T10:46:32;95545.25;;;22.22;61.50
2685;BME280;1352;48.446;9.156;2022-10-16T10:49:12;95543.03;;;22.32;63.79
2685;BME280;1352;48.446;9.156;2022-10-16T10:51:51;95542.63;;;22.42;61.89
2685;BME280;1352;48.446;9.156;2022-10-16T10:54:27;95544.88;;;22.45;58.13
2685;BME280;1352;48.446;9.156;2022-10-16T10:56:59;95537.31;;;22.61;59.85
2685;BME280;1352;48.446;9.156;2022-10-16T10:59:49;95539.97;;;22.61;60.48
2685;BME280;1352;48.446;9.156;2022-10-16T11:02:26;95550.59;;;22.68;59.02
2685;BME280;1352;48.446;9.156;2022-10-16T11:07:57;95534.03;;;22.73;58.61
2685;BME280;1352;48.446;9.156;2022-10-16T11:10:27;95532.63;;;22.77;57.32
2685;BME280;1352;48.446;9.156;2022-10-16T11:13:03;95532.22;;;22.80;56.37
2685;BME280;1352;48.446;9.156;2022-10-16T11:15:36;95531.59;;;22.84;57.92
2685;BME280;1352;48.446;9.156;2022-10-16T11:18:12;95531.19;;;22.87;55.35
2685;BME280;1352;48.446;9.156;2022-10-16T11:20:48;95529.75;;;22.85;56.93
2685;BME280;1352;48.446;9.156;2022-10-16T11:23:18;95529.34;;;22.94;55.10
2685;BME280;1352;48.446;9.156;2022-10-16T11:25:48;95533.66;;;23.02;56.80
2685;BME280;1352;48.446;9.156;2022-10-16T11:28:18;95526.06;;;22.99;56.62
2685;BME280;1352;48.446;9.156;2022-10-16T11:30:51;95527.88;;;23.05;57.42
2685;BME280;1352;48.446;9.156;2022-10-16T11:33:29;95530.13;;;23.08;56.77
2685;BME280;1352;48.446;9.156;2022-10-16T11:36:02;95528.09;;;23.04;57.55
2685;BME280;1352;48.446;9.156;2022-10-16T11:38:34;95523.19;;;22.94;56.96
2685;BME280;1352;48.446;9.156;2022-10-16T11:41:12;95529.72;;;23.05;58.88
2685;BME280;1352;48.446;9.156;2022-10-16T11:43:45;95531.16;;;23.07;58.90
2685;BME280;1352;48.446;9.156;2022-10-16T11:46:18;95517.81;;;23.14;56.63
2685;BME280;1352;48.446;9.156;2022-10-16T11:48:51;95521.50;;;23.26;59.49
2685;BME280;1352;48.446;9.156;2022-10-16T11:51:25;95520.44;;;23.40;64.75
2685;BME280;1352;48.446;9.156;2022-10-16T11:54:00;95518.16;;;23.50;59.77
2685;BME280;1352;48.446;9.156;2022-10-16T11:56:32;95526.34;;;23.42;58.54
2685;BME280;1352;48.446;9.156;2022-10-16T11:59:06;95531.84;;;23.60;61.18
2685;BME280;1352;48.446;9.156;2022-10-16T12:01:40;95524.84;;;23.72;55.88
2685;BME280;1352;48.446;9.156;2022-10-16T12:04:19;95524.13;;;23.32;61.07
2685;BME280;1352;48.446;9.156;2022-10-16T12:06:52;95529.06;;;23.22;56.90
2685;BME280;1352;48.446;9.156;2022-10-16T12:09:25;95516.34;;;23.37;58.66
2685;BME280;1352;48.446;9.156;2022-10-16T12:11:54;95515.75;;;23.29;58.28
2685;BME280;1352;48.446;9.156;2022-10-16T12:14:34;95518.03;;;23.12;60.94
2685;BME280;1352;48.446;9.156;2022-10-16T12:17:03;95520.66;;;23.32;59.21
2685;BME280;1352;48.446;9.156;2022-10-16T12:19:33;95518.34;;;23.55;59.88
2685;BME280;1352;48.446;9.156;2022-10-16T12:22:02;95514.75;;;23.81;59.90
2685;BME280;1352;48.446;9.156;2022-10-16T12:24:34;95521.31;;;23.85;61.58
2685;BME280;1352;48.446;9.156;2022-10-16T12:27:04;95516.78;;;23.86;58.07
2685;BME280;1352;48.446;9.156;2022-10-16T12:29:34;95523.09;;;23.91;58.72
2685;BME280;1352;48.446;9.156;2022-10-16T12:32:04;95518.63;;;23.85;59.40
2685;BME280;1352;48.446;9.156;2022-10-16T12:34:41;95518.22;;;23.82;56.53
2685;BME280;1352;48.446;9.156;2022-10-16T12:37:13;95510.59;;;23.92;56.20
2685;BME280;1352;48.446;9.156;2022-10-16T12:39:42;95519.09;;;24.07;57.66
2685;BME280;1352;48.446;9.156;2022-10-16T12:42:30;95519.63;;;23.91;55.47
2685;BME280;1352;48.446;9.156;2022-10-16T12:44:59;95519.66;;;23.84;54.47
2685;BME280;1352;48.446;9.156;2022-10-16T12:47:37;95518.38;;;23.93;56.85
2685;BME280;1352;48.446;9.156;2022-10-16T12:50:28;95520.41;;;23.98;56.71
2685;BME280;1352;48.446;9.156;2022-10-16T12:52:56;95521.78;;;24.07;61.01
2685;BME280;1352;48.446;9.156;2022-10-16T12:55:24;95528.31;;;24.11;58.51
2685;BME280;1352;48.446;9.156;2022-10-16T12:58:06;95531.00;;;24.11;57.33
2685;BME280;1352;48.446;9.156;2022-10-16T13:00:44;95530.22;;;24.04;56.50
2685;BME280;1352;48.446;9.156;2022-10-16T13:03:39;95528.59;;;24.03;53.42
2685;BME280;1352;48.446;9.156;2022-10-16T13:06:22;95520.53;;;24.09;53.32
2685;BME280;1352;48.446;9.156;2022-10-16T13:09:07;95531.19;;;24.09;57.34
2685;BME280;1352;48.446;9.156;2022-10-16T13:11:52;95530.50;;;23.89;52.42
2685;BME280;1352;48.446;9.156;2022-10-16T13:17:15;95534.97;;;23.44;53.00
2685;BME280;1352;48.446;9.156;2022-10-16T13:19:48;95540.34;;;23.24;54.77
2685;BME280;1352;48.446;9.156;2022-10-16T13:22:25;95538.09;;;23.15;54.41
2685;BME280;1352;48.446;9.156;2022-10-16T13:25:08;95542.19;;;23.17;53.89
2685;BME280;1352;48.446;9.156;2022-10-16T13:27:45;95535.19;;;23.36;59.70
2685;BME280;1352;48.446;9.156;2022-10-16T13:30:18;95545.06;;;23.16;59.11
2685;BME280;1352;48.446;9.156;2022-10-16T13:32:47;95535.66;;;23.20;58.04
2685;BME280;1352;48.446;9.156;2022-10-16T13:35:20;95537.22;;;23.54;63.22
2685;BME280;1352;48.446;9.156;2022-10-16T13:37:49;95536.47;;;23.78;66.29
2685;BME280;1352;48.446;9.156;2022-10-16T13:40:22;95539.97;;;23.85;66.89
2685;BME280;1352;48.446;9.156;2022-10-16T13:42:50;95538.69;;;23.94;66.36
2685;BME280;1352;48.446;9.156;2022-10-16T13:45:18;95540.31;;;23.95;67.01